createdAt,value
2022-08-02T00:00:42.214Z,0.00
2022-08-02T00:01:41.262Z,0.00
2022-08-02T00:02:41.181Z,0.00
2022-08-02T00:03:41.239Z,0.00
2022-08-02T00:04:41.160Z,0.00
2022-08-02T00:05:41.161Z,0.00
2022-08-02T00:06:41.153Z,0.00
2022-08-02T00:07:41.564Z,0.00
2022-08-02T00:08:42.201Z,0.00
2022-08-02T00:09:41.129Z,0.00
2022-08-02T00:10:41.347Z,0.00
2022-08-02T00:11:43.165Z,0.00
2022-08-02T00:12:41.113Z,0.00
2022-08-02T00:13:41.109Z,0.00
2022-08-02T00:14:41.137Z,0.00
2022-08-02T00:15:41.078Z,0.00
2022-08-02T00:16:41.067Z,0.00
2022-08-02T00:17:41.071Z,0.00
2022-08-02T00:18:41.076Z,0.00
2022-08-02T00:19:41.095Z,0.00
2022-08-02T00:20:41.089Z,0.00
2022-08-02T00:21:41.048Z,0.00
2022-08-02T00:22:41.042Z,0.00
2022-08-02T00:24:29.439Z,0.00
2022-08-02T00:24:42.075Z,0.00
2022-08-02T00:25:55.269Z,0.00
2022-08-02T00:26:42.011Z,0.00
2022-08-02T00:27:41.022Z,0.00
2022-08-02T00:28:41.003Z,0.00
2022-08-02T00:29:50.524Z,0.00
2022-08-02T00:30:42.994Z,0.00
2022-08-02T00:31:40.991Z,0.00
2022-08-02T00:32:40.980Z,0.00
2022-08-02T00:34:26.654Z,0.00
2022-08-02T00:34:41.992Z,0.00
2022-08-02T00:35:40.966Z,0.00
2022-08-02T00:36:40.943Z,0.00
2022-08-02T00:37:41.004Z,0.00
2022-08-02T00:38:40.921Z,0.00
2022-08-02T00:39:40.903Z,0.00
2022-08-02T00:40:40.937Z,0.00
2022-08-02T00:41:40.894Z,0.00
2022-08-02T00:42:40.961Z,0.00
2022-08-02T00:43:40.885Z,0.00
2022-08-02T00:44:40.905Z,0.00
2022-08-02T00:46:02.229Z,0.00
2022-08-02T00:46:41.864Z,0.00
2022-08-02T00:47:40.899Z,0.00
2022-08-02T00:48:43.002Z,0.00
2022-08-02T00:49:40.978Z,0.00
2022-08-02T00:50:40.874Z,0.00
2022-08-02T00:51:40.832Z,0.00
2022-08-02T00:52:40.828Z,0.00
2022-08-02T00:53:40.831Z,0.00
2022-08-02T00:54:40.807Z,0.00
2022-08-02T00:55:40.866Z,0.00
2022-08-02T00:56:40.804Z,0.00
2022-08-02T00:57:41.783Z,0.00
2022-08-02T00:58:40.813Z,0.00
2022-08-02T00:59:40.769Z,0.00
2022-08-02T01:00:40.836Z,0.00
2022-08-02T01:01:56.675Z,0.00
2022-08-02T01:02:41.761Z,0.00
2022-08-02T01:03:40.745Z,0.00
2022-08-02T01:04:40.754Z,0.00
2022-08-02T01:05:55.790Z,0.00
2022-08-02T01:06:42.765Z,0.00
2022-08-02T01:07:40.737Z,0.00
2022-08-02T01:08:40.725Z,0.00
2022-08-02T01:09:40.714Z,0.00
2022-08-02T01:10:40.722Z,0.00
2022-08-02T01:11:40.709Z,0.00
2022-08-02T01:12:40.697Z,0.00
2022-08-02T01:13:40.695Z,0.00
2022-08-02T01:14:40.672Z,0.00
2022-08-02T01:15:40.656Z,0.00
2022-08-02T01:16:40.693Z,0.00
2022-08-02T01:17:40.664Z,0.00
2022-08-02T01:18:40.636Z,0.00
2022-08-02T01:19:40.626Z,0.00
2022-08-02T01:20:40.619Z,0.00
2022-08-02T01:21:40.668Z,0.00
2022-08-02T01:23:00.721Z,0.00
2022-08-02T01:23:42.773Z,0.00
2022-08-02T01:24:40.595Z,0.00
2022-08-02T01:25:40.615Z,0.00
2022-08-02T01:26:40.639Z,0.00
2022-08-02T01:27:40.600Z,0.00
2022-08-02T01:28:40.596Z,0.00
2022-08-02T01:29:40.596Z,0.00
2022-08-02T01:30:40.635Z,0.00
2022-08-02T01:31:40.572Z,0.00
2022-08-02T01:32:40.579Z,0.00
2022-08-02T01:33:40.553Z,0.00
2022-08-02T01:34:40.546Z,0.00
2022-08-02T01:35:47.183Z,0.00
2022-08-02T01:36:41.560Z,0.00
2022-08-02T01:37:40.565Z,0.00
2022-08-02T01:38:40.509Z,0.00
2022-08-02T01:39:40.497Z,0.00
2022-08-02T01:40:40.508Z,0.00
2022-08-02T01:41:40.526Z,0.00
2022-08-02T01:42:40.523Z,0.00
2022-08-02T01:43:40.469Z,0.00
2022-08-02T01:44:40.546Z,0.00
2022-08-02T01:45:40.460Z,0.00
2022-08-02T01:46:40.512Z,0.00
2022-08-02T01:47:40.495Z,0.00
2022-08-02T01:48:40.445Z,0.00
2022-08-02T01:49:40.497Z,0.00
2022-08-02T01:50:40.430Z,0.00
2022-08-02T01:51:40.408Z,0.00
2022-08-02T01:52:40.408Z,0.00
2022-08-02T01:53:41.421Z,0.00
2022-08-02T01:54:40.401Z,0.00
2022-08-02T01:55:57.071Z,0.00
2022-08-02T01:56:41.375Z,0.00
2022-08-02T01:57:42.013Z,0.00
2022-08-02T01:58:40.437Z,0.00
2022-08-02T01:59:40.387Z,0.00
2022-08-02T02:00:41.389Z,0.00
2022-08-02T02:01:40.421Z,0.00
2022-08-02T02:02:40.462Z,0.00
2022-08-02T02:03:41.550Z,0.00
2022-08-02T02:04:40.341Z,0.00
2022-08-02T02:05:40.346Z,0.00
2022-08-02T02:06:40.325Z,0.00
2022-08-02T02:07:40.310Z,0.00
2022-08-02T02:08:40.343Z,0.00
2022-08-02T02:09:47.870Z,0.00
2022-08-02T02:10:41.282Z,0.00
2022-08-02T02:12:14.452Z,0.00
2022-08-02T02:12:41.296Z,0.00
2022-08-02T02:13:40.360Z,0.00
2022-08-02T02:14:40.266Z,0.00
2022-08-02T02:15:40.800Z,0.00
2022-08-02T02:16:40.241Z,0.00
2022-08-02T02:18:11.686Z,0.00
2022-08-02T02:18:41.295Z,0.00
2022-08-02T02:19:40.233Z,0.00
2022-08-02T02:20:40.212Z,0.00
2022-08-02T02:21:41.524Z,0.00
2022-08-02T02:22:40.195Z,0.00
2022-08-02T02:23:40.701Z,0.00
2022-08-02T02:24:40.411Z,0.00
2022-08-02T02:25:41.733Z,0.00
2022-08-02T02:26:41.382Z,0.00
2022-08-02T02:27:41.158Z,0.00
2022-08-02T02:28:40.194Z,0.00
2022-08-02T02:29:40.175Z,0.00
2022-08-02T02:30:40.135Z,0.00
2022-08-02T02:31:40.136Z,0.00
2022-08-02T02:32:40.115Z,0.00
2022-08-02T02:33:40.117Z,0.00
2022-08-02T02:34:40.167Z,0.00
2022-08-02T02:35:40.129Z,0.00
2022-08-02T02:36:40.095Z,0.00
2022-08-02T02:37:40.095Z,0.00
2022-08-02T02:38:40.082Z,0.00
2022-08-02T02:39:40.111Z,0.00
2022-08-02T02:40:41.040Z,0.00
2022-08-02T02:41:40.058Z,0.00
2022-08-02T02:42:41.296Z,0.00
2022-08-02T02:43:40.040Z,0.00
2022-08-02T02:44:40.083Z,0.00
2022-08-02T02:45:40.052Z,0.00
2022-08-02T02:46:40.025Z,0.00
2022-08-02T02:47:41.621Z,0.00
2022-08-02T02:48:40.011Z,0.00
2022-08-02T02:49:40.069Z,0.00
2022-08-02T02:50:40.030Z,0.00
2022-08-02T02:51:39.989Z,0.00
2022-08-02T02:52:39.986Z,0.00
2022-08-02T02:54:33.991Z,0.00
2022-08-02T02:54:40.966Z,0.00
2022-08-02T02:55:39.979Z,0.00
2022-08-02T02:56:39.953Z,0.00
2022-08-02T02:57:39.950Z,0.00
2022-08-02T02:58:39.938Z,0.00
2022-08-02T02:59:49.095Z,0.00
2022-08-02T03:00:41.024Z,0.00
2022-08-02T03:01:56.876Z,0.00
2022-08-02T03:02:40.929Z,0.00
2022-08-02T03:03:39.899Z,0.00
2022-08-02T03:04:55.434Z,0.00
2022-08-02T03:05:40.930Z,0.00
2022-08-02T03:06:39.883Z,0.00
2022-08-02T03:07:39.884Z,0.00
2022-08-02T03:08:39.873Z,0.00
2022-08-02T03:09:39.857Z,0.00
2022-08-02T03:10:39.887Z,0.00
2022-08-02T03:11:39.846Z,0.00
2022-08-02T03:12:40.799Z,0.00
2022-08-02T03:13:39.842Z,0.00
2022-08-02T03:14:39.852Z,0.00
2022-08-02T03:15:39.829Z,0.00
2022-08-02T03:16:39.847Z,0.00
2022-08-02T03:17:39.867Z,0.00
2022-08-02T03:18:39.832Z,0.00
2022-08-02T03:19:39.811Z,0.00
2022-08-02T03:20:39.782Z,0.00
2022-08-02T03:21:39.826Z,0.00
2022-08-02T03:22:39.772Z,0.00
2022-08-02T03:23:39.756Z,0.00
2022-08-02T03:24:39.778Z,0.00
2022-08-02T03:25:39.747Z,0.00
2022-08-02T03:26:39.768Z,0.00
2022-08-02T03:27:39.752Z,0.00
2022-08-02T03:28:39.741Z,0.00
2022-08-02T03:29:39.716Z,0.00
2022-08-02T03:30:39.710Z,0.00
2022-08-02T03:31:39.755Z,0.00
2022-08-02T03:32:39.691Z,0.00
2022-08-02T03:33:39.691Z,0.00
2022-08-02T03:34:39.711Z,0.00
2022-08-02T03:35:40.458Z,0.00
2022-08-02T03:36:39.685Z,0.00
2022-08-02T03:37:39.693Z,0.00
2022-08-02T03:38:40.466Z,0.00
2022-08-02T03:39:41.481Z,0.00
2022-08-02T03:40:40.638Z,0.00
2022-08-02T03:41:39.630Z,0.00
2022-08-02T03:42:39.705Z,0.00
2022-08-02T03:43:39.624Z,0.00
2022-08-02T03:44:39.632Z,0.00
2022-08-02T03:45:39.608Z,0.00
2022-08-02T03:46:39.598Z,0.00
2022-08-02T03:47:39.610Z,0.00
2022-08-02T03:48:39.583Z,0.00
2022-08-02T03:49:39.635Z,0.00
2022-08-02T03:50:39.559Z,0.00
2022-08-02T03:51:39.552Z,0.00
2022-08-02T03:52:39.636Z,0.00
2022-08-02T03:53:39.544Z,0.00
2022-08-02T03:54:45.881Z,0.00
2022-08-02T03:55:40.538Z,0.00
2022-08-02T03:56:39.523Z,0.00
2022-08-02T03:57:39.536Z,5.62
2022-08-02T03:58:39.592Z,5.62
2022-08-02T03:59:39.530Z,5.62
2022-08-02T04:00:39.555Z,5.62
2022-08-02T04:01:39.485Z,5.62
2022-08-02T04:02:39.491Z,5.62
2022-08-02T04:03:39.501Z,5.62
2022-08-02T04:04:39.473Z,5.62
2022-08-02T04:06:03.299Z,5.62
2022-08-02T04:06:41.737Z,5.62
2022-08-02T04:08:33.995Z,5.62
2022-08-02T04:08:40.465Z,5.62
2022-08-02T04:09:39.439Z,5.62
2022-08-02T04:10:39.415Z,5.62
2022-08-02T04:11:39.424Z,11.25
2022-08-02T04:12:39.407Z,11.25
2022-08-02T04:13:39.437Z,11.25
2022-08-02T04:14:39.403Z,11.25
2022-08-02T04:15:39.382Z,16.88
2022-08-02T04:16:39.381Z,16.88
2022-08-02T04:17:39.380Z,11.25
2022-08-02T04:18:39.393Z,11.25
2022-08-02T04:19:39.364Z,11.25
2022-08-02T04:20:39.356Z,11.25
2022-08-02T04:21:50.047Z,16.88
2022-08-02T04:22:40.369Z,16.88
2022-08-02T04:23:39.334Z,16.88
2022-08-02T04:24:39.472Z,16.88
2022-08-02T04:25:40.620Z,16.88
2022-08-02T04:26:39.314Z,16.88
2022-08-02T04:27:50.607Z,16.88
2022-08-02T04:28:40.292Z,16.88
2022-08-02T04:29:41.757Z,16.88
2022-08-02T04:30:39.273Z,16.88
2022-08-02T04:31:39.278Z,22.50
2022-08-02T04:32:39.272Z,22.50
2022-08-02T04:33:39.255Z,22.50
2022-08-02T04:34:39.327Z,28.12
2022-08-02T04:35:39.256Z,28.12
2022-08-02T04:36:39.241Z,28.12
2022-08-02T04:37:39.236Z,33.75
2022-08-02T04:38:40.229Z,33.75
2022-08-02T04:39:39.263Z,33.75
2022-08-02T04:40:39.223Z,39.38
2022-08-02T04:41:43.737Z,39.38
2022-08-02T04:42:40.212Z,45.00
2022-08-02T04:43:39.190Z,45.00
2022-08-02T04:44:39.213Z,45.00
2022-08-02T04:45:39.226Z,50.62
2022-08-02T04:46:39.167Z,56.25
2022-08-02T04:48:02.116Z,61.88
2022-08-02T04:48:41.174Z,61.88
2022-08-02T04:49:39.231Z,61.88
2022-08-02T04:50:39.159Z,67.50
2022-08-02T04:51:39.148Z,67.50
2022-08-02T04:52:41.718Z,67.50
2022-08-02T04:53:41.128Z,73.12
2022-08-02T04:54:39.140Z,78.75
2022-08-02T04:55:39.129Z,73.12
2022-08-02T04:56:39.099Z,73.12
2022-08-02T04:57:39.092Z,78.75
2022-08-02T04:58:40.992Z,84.38
2022-08-02T04:59:39.081Z,84.38
2022-08-02T05:00:39.171Z,84.38
2022-08-02T05:01:39.061Z,84.38
2022-08-02T05:02:39.088Z,84.38
2022-08-02T05:03:39.052Z,78.75
2022-08-02T05:04:39.075Z,78.75
2022-08-02T05:05:39.076Z,78.75
2022-08-02T05:06:39.038Z,73.12
2022-08-02T05:07:39.022Z,73.12
2022-08-02T05:08:39.024Z,73.12
2022-08-02T05:09:39.010Z,67.50
2022-08-02T05:10:39.007Z,67.50
2022-08-02T05:11:39.035Z,67.50
2022-08-02T05:12:38.993Z,67.50
2022-08-02T05:13:57.405Z,67.50
2022-08-02T05:14:39.979Z,67.50
2022-08-02T05:15:38.977Z,67.50
2022-08-02T05:16:39.005Z,67.50
2022-08-02T05:17:38.958Z,61.88
2022-08-02T05:18:38.947Z,67.50
2022-08-02T05:19:38.943Z,67.50
2022-08-02T05:20:38.937Z,67.50
2022-08-02T05:21:38.975Z,61.88
2022-08-02T05:22:38.940Z,67.50
2022-08-02T05:23:38.916Z,67.50
2022-08-02T05:24:38.927Z,56.25
2022-08-02T05:25:38.931Z,50.62
2022-08-02T05:26:38.946Z,45.00
2022-08-02T05:27:38.889Z,45.00
2022-08-02T05:28:38.881Z,45.00
2022-08-02T05:29:38.878Z,50.62
2022-08-02T05:30:39.864Z,61.88
2022-08-02T05:31:38.856Z,61.88
2022-08-02T05:32:38.868Z,56.25
2022-08-02T05:33:38.850Z,50.62
2022-08-02T05:34:38.849Z,56.25
2022-08-02T05:35:38.836Z,50.62
2022-08-02T05:36:38.828Z,45.00
2022-08-02T05:37:38.841Z,61.88
2022-08-02T05:38:38.806Z,45.00
2022-08-02T05:39:38.802Z,56.25
2022-08-02T05:40:53.512Z,84.38
2022-08-02T05:41:39.786Z,67.50
2022-08-02T05:42:38.798Z,56.25
2022-08-02T05:43:38.778Z,61.88
2022-08-02T05:44:38.774Z,56.25
2022-08-02T05:45:38.759Z,56.25
2022-08-02T05:46:38.736Z,56.25
2022-08-02T05:47:38.794Z,61.88
2022-08-02T05:48:38.729Z,67.50
2022-08-02T05:49:38.814Z,73.12
2022-08-02T05:50:38.723Z,78.75
2022-08-02T05:51:38.746Z,90.00
2022-08-02T05:52:38.758Z,95.62
2022-08-02T05:53:38.691Z,101.25
2022-08-02T05:54:39.598Z,95.62
2022-08-02T05:55:38.681Z,101.25
2022-08-02T05:56:38.676Z,112.50
2022-08-02T05:57:41.956Z,118.12
2022-08-02T05:58:39.668Z,112.50
2022-08-02T05:59:38.661Z,118.12
2022-08-02T06:00:38.665Z,123.75
2022-08-02T06:01:38.755Z,123.75
2022-08-02T06:02:38.675Z,123.75
2022-08-02T06:03:38.653Z,129.38
2022-08-02T06:04:38.626Z,129.38
2022-08-02T06:05:38.620Z,123.75
2022-08-02T06:06:38.610Z,129.38
2022-08-02T06:07:38.617Z,118.12
2022-08-02T06:08:38.692Z,135.00
2022-08-02T06:09:38.612Z,140.62
2022-08-02T06:10:38.567Z,129.38
2022-08-02T06:11:38.770Z,129.38
2022-08-02T06:12:38.632Z,146.25
2022-08-02T06:13:38.640Z,140.62
2022-08-02T06:14:38.585Z,146.25
2022-08-02T06:15:40.655Z,140.62
2022-08-02T06:16:42.169Z,135.00
2022-08-02T06:17:41.837Z,135.00
2022-08-02T06:18:38.567Z,140.62
2022-08-02T06:19:50.963Z,140.62
2022-08-02T06:20:39.509Z,135.00
2022-08-02T06:22:33.730Z,151.88
2022-08-02T06:22:39.580Z,112.50
2022-08-02T06:23:38.486Z,112.50
2022-08-02T06:24:38.530Z,123.75
2022-08-02T06:25:51.212Z,135.00
2022-08-02T06:26:39.457Z,135.00
2022-08-02T06:27:38.448Z,135.00
2022-08-02T06:28:38.444Z,140.62
2022-08-02T06:29:39.086Z,157.50
2022-08-02T06:30:39.500Z,163.12
2022-08-02T06:31:38.447Z,157.50
2022-08-02T06:32:38.466Z,146.25
2022-08-02T06:33:38.395Z,146.25
2022-08-02T06:34:39.457Z,146.25
2022-08-02T06:35:38.504Z,140.62
2022-08-02T06:36:38.387Z,146.25
2022-08-02T06:37:38.376Z,146.25
2022-08-02T06:38:38.392Z,129.38
2022-08-02T06:39:38.388Z,112.50
2022-08-02T06:40:38.351Z,129.38
2022-08-02T06:41:38.346Z,135.00
2022-08-02T06:42:38.368Z,135.00
2022-08-02T06:43:39.145Z,140.62
2022-08-02T06:44:49.962Z,146.25
2022-08-02T06:45:40.322Z,146.25
2022-08-02T06:47:11.489Z,146.25
2022-08-02T06:47:39.309Z,146.25
2022-08-02T06:48:38.307Z,163.12
2022-08-02T06:49:51.347Z,174.38
2022-08-02T06:50:39.288Z,174.38
2022-08-02T06:51:38.309Z,185.62
2022-08-02T06:52:38.278Z,202.50
2022-08-02T06:53:38.278Z,202.50
2022-08-02T06:54:38.265Z,213.75
2022-08-02T06:55:43.548Z,196.88
2022-08-02T06:56:39.256Z,185.62
2022-08-02T06:57:38.240Z,191.25
2022-08-02T06:58:38.231Z,185.62
2022-08-02T06:59:38.254Z,191.25
2022-08-02T07:00:38.241Z,196.88
2022-08-02T07:01:39.152Z,191.25
2022-08-02T07:02:39.219Z,185.62
2022-08-02T07:03:38.206Z,219.38
2022-08-02T07:04:38.204Z,202.50
2022-08-02T07:05:38.252Z,174.38
2022-08-02T07:06:38.179Z,191.25
2022-08-02T07:07:38.165Z,185.62
2022-08-02T07:08:38.161Z,202.50
2022-08-02T07:09:38.165Z,213.75
2022-08-02T07:10:38.162Z,219.38
2022-08-02T07:11:38.140Z,213.75
2022-08-02T07:12:38.198Z,219.38
2022-08-02T07:13:39.978Z,219.38
2022-08-02T07:14:38.278Z,219.38
2022-08-02T07:15:38.129Z,213.75
2022-08-02T07:16:38.100Z,208.12
2022-08-02T07:17:38.102Z,213.75
2022-08-02T07:18:38.078Z,208.12
2022-08-02T07:19:38.415Z,180.00
2022-08-02T07:20:38.099Z,180.00
2022-08-02T07:21:57.884Z,174.38
2022-08-02T07:22:39.085Z,213.75
2022-08-02T07:23:38.038Z,208.12
2022-08-02T07:24:38.061Z,219.38
2022-08-02T07:26:02.947Z,219.38
2022-08-02T07:27:01.518Z,213.75
2022-08-02T07:27:40.033Z,225.00
2022-08-02T07:28:38.012Z,225.00
2022-08-02T07:29:44.917Z,219.38
2022-08-02T07:30:39.047Z,230.62
2022-08-02T07:31:37.997Z,241.88
2022-08-02T07:32:38.002Z,230.62
2022-08-02T07:33:40.118Z,236.25
2022-08-02T07:34:37.991Z,230.62
2022-08-02T07:35:37.955Z,225.00
2022-08-02T07:36:38.342Z,219.38
2022-08-02T07:37:54.564Z,213.75
2022-08-02T07:38:38.952Z,202.50
2022-08-02T07:39:37.928Z,202.50
2022-08-02T07:40:38.932Z,196.88
2022-08-02T07:41:37.935Z,202.50
2022-08-02T07:42:37.944Z,174.38
2022-08-02T07:43:37.901Z,174.38
2022-08-02T07:44:37.925Z,185.62
2022-08-02T07:45:57.096Z,191.25
2022-08-02T07:46:38.935Z,185.62
2022-08-02T07:47:37.888Z,191.25
2022-08-02T07:48:37.879Z,196.88
2022-08-02T07:49:37.921Z,191.25
2022-08-02T07:50:38.001Z,191.25
2022-08-02T07:51:37.897Z,191.25
2022-08-02T07:52:37.855Z,196.88
2022-08-02T07:53:50.810Z,191.25
2022-08-02T07:54:38.835Z,196.88
2022-08-02T07:55:39.671Z,196.88
2022-08-02T07:56:38.865Z,196.88
2022-08-02T07:57:41.288Z,185.62
2022-08-02T07:58:38.805Z,202.50
2022-08-02T07:59:37.792Z,202.50
2022-08-02T08:00:37.780Z,191.25
2022-08-02T08:01:37.869Z,191.25
2022-08-02T08:02:38.808Z,196.88
2022-08-02T08:03:37.748Z,191.25
2022-08-02T08:04:38.761Z,191.25
2022-08-02T08:05:37.760Z,185.62
2022-08-02T08:06:37.764Z,191.25
2022-08-02T08:07:37.752Z,185.62
2022-08-02T08:08:37.712Z,185.62
2022-08-02T08:09:37.712Z,185.62
2022-08-02T08:10:37.705Z,180.00
2022-08-02T08:11:37.742Z,185.62
2022-08-02T08:12:37.720Z,185.62
2022-08-02T08:13:37.701Z,191.25
2022-08-02T08:14:37.685Z,185.62
2022-08-02T08:15:37.673Z,191.25
2022-08-02T08:16:37.694Z,191.25
2022-08-02T08:17:37.701Z,196.88
2022-08-02T08:18:37.655Z,191.25
2022-08-02T08:19:51.641Z,191.25
2022-08-02T08:20:38.632Z,191.25
2022-08-02T08:21:37.659Z,191.25
2022-08-02T08:22:37.661Z,196.88
2022-08-02T08:23:37.611Z,191.25
2022-08-02T08:24:37.609Z,185.62
2022-08-02T08:25:41.333Z,191.25
2022-08-02T08:26:37.623Z,185.62
2022-08-02T08:27:37.620Z,180.00
2022-08-02T08:28:37.576Z,180.00
2022-08-02T08:29:37.594Z,196.88
2022-08-02T08:30:37.583Z,196.88
2022-08-02T08:31:37.592Z,202.50
2022-08-02T08:32:37.582Z,196.88
2022-08-02T08:33:37.563Z,202.50
2022-08-02T08:34:37.543Z,202.50
2022-08-02T08:35:37.534Z,196.88
2022-08-02T08:36:37.546Z,196.88
2022-08-02T08:37:37.546Z,196.88
2022-08-02T08:38:37.517Z,202.50
2022-08-02T08:39:37.527Z,196.88
2022-08-02T08:40:38.501Z,196.88
2022-08-02T08:41:37.519Z,196.88
2022-08-02T08:42:37.517Z,196.88
2022-08-02T08:43:37.478Z,196.88
2022-08-02T08:44:37.470Z,196.88
2022-08-02T08:45:37.467Z,191.25
2022-08-02T08:46:39.188Z,191.25
2022-08-02T08:47:37.870Z,196.88
2022-08-02T08:48:37.437Z,196.88
2022-08-02T08:49:37.448Z,191.25
2022-08-02T08:50:38.443Z,191.25
2022-08-02T08:51:37.433Z,202.50
2022-08-02T08:52:37.431Z,202.50
2022-08-02T08:53:37.411Z,202.50
2022-08-02T08:54:37.415Z,208.12
2022-08-02T08:55:37.387Z,208.12
2022-08-02T08:56:37.375Z,208.12
2022-08-02T08:57:37.401Z,208.12
2022-08-02T08:58:37.367Z,208.12
2022-08-02T08:59:39.337Z,208.12
2022-08-02T09:00:37.352Z,196.88
2022-08-02T09:01:49.802Z,208.12
2022-08-02T09:02:38.374Z,208.12
2022-08-02T09:03:37.333Z,219.38
2022-08-02T09:04:37.320Z,213.75
2022-08-02T09:05:37.326Z,202.50
2022-08-02T09:06:37.304Z,213.75
2022-08-02T09:07:37.334Z,213.75
2022-08-02T09:08:37.291Z,213.75
2022-08-02T09:09:37.296Z,213.75
2022-08-02T09:10:37.292Z,202.50
2022-08-02T09:11:37.281Z,219.38
2022-08-02T09:12:37.289Z,219.38
2022-08-02T09:13:45.987Z,225.00
2022-08-02T09:14:38.258Z,219.38
2022-08-02T09:15:37.252Z,213.75
2022-08-02T09:16:37.255Z,213.75
2022-08-02T09:17:37.270Z,213.75
2022-08-02T09:18:37.231Z,208.12
2022-08-02T09:19:37.228Z,202.50
2022-08-02T09:20:37.223Z,213.75
2022-08-02T09:21:37.215Z,213.75
2022-08-02T09:22:37.227Z,213.75
2022-08-02T09:23:37.187Z,213.75
2022-08-02T09:24:37.183Z,208.12
2022-08-02T09:25:37.247Z,208.12
2022-08-02T09:26:37.195Z,208.12
2022-08-02T09:27:37.181Z,202.50
2022-08-02T09:28:37.176Z,208.12
2022-08-02T09:29:48.589Z,208.12
2022-08-02T09:30:38.181Z,208.12
2022-08-02T09:31:37.165Z,208.12
2022-08-02T09:32:37.188Z,208.12
2022-08-02T09:33:37.145Z,208.12
2022-08-02T09:34:37.132Z,208.12
2022-08-02T09:36:07.296Z,208.12
2022-08-02T09:36:38.113Z,202.50
2022-08-02T09:37:37.124Z,208.12
2022-08-02T09:38:37.110Z,208.12
2022-08-02T09:39:37.088Z,208.12
2022-08-02T09:40:38.081Z,208.12
2022-08-02T09:41:37.060Z,208.12
2022-08-02T09:42:38.083Z,213.75
2022-08-02T09:43:37.074Z,208.12
2022-08-02T09:44:37.054Z,213.75
2022-08-02T09:45:37.035Z,213.75
2022-08-02T09:46:37.063Z,219.38
2022-08-02T09:47:37.274Z,219.38
2022-08-02T09:48:37.045Z,168.75
2022-08-02T09:49:37.163Z,225.00
2022-08-02T09:50:37.002Z,230.62
2022-08-02T09:51:37.007Z,236.25
2022-08-02T09:52:43.304Z,241.88
2022-08-02T09:53:38.030Z,241.88
2022-08-02T09:54:36.978Z,247.50
2022-08-02T09:55:37.015Z,253.12
2022-08-02T09:56:37.956Z,253.12
2022-08-02T09:57:36.956Z,208.12
2022-08-02T09:58:37.030Z,264.38
2022-08-02T09:59:36.960Z,168.75
2022-08-02T10:00:51.765Z,174.38
2022-08-02T10:01:39.114Z,275.62
2022-08-02T10:02:36.967Z,275.62
2022-08-02T10:03:37.145Z,247.50
2022-08-02T10:04:53.224Z,270.00
2022-08-02T10:05:42.764Z,286.88
2022-08-02T10:06:37.950Z,286.88
2022-08-02T10:07:36.881Z,286.88
2022-08-02T10:08:36.883Z,286.88
2022-08-02T10:09:41.500Z,286.88
2022-08-02T10:10:38.898Z,270.00
2022-08-02T10:11:36.897Z,270.00
2022-08-02T10:12:36.886Z,270.00
2022-08-02T10:13:36.913Z,264.38
2022-08-02T10:14:36.890Z,264.38
2022-08-02T10:15:36.819Z,258.75
2022-08-02T10:16:37.856Z,253.12
2022-08-02T10:17:36.811Z,196.88
2022-08-02T10:18:39.480Z,258.75
2022-08-02T10:20:00.032Z,253.12
2022-08-02T10:20:37.793Z,247.50
2022-08-02T10:21:36.826Z,247.50
2022-08-02T10:22:36.782Z,241.88
2022-08-02T10:23:36.774Z,241.88
2022-08-02T10:24:36.850Z,247.50
2022-08-02T10:25:36.825Z,247.50
2022-08-02T10:26:36.764Z,247.50
2022-08-02T10:28:02.461Z,247.50
2022-08-02T10:28:38.738Z,253.12
2022-08-02T10:29:53.801Z,247.50
2022-08-02T10:30:37.843Z,247.50
2022-08-02T10:31:36.745Z,241.88
2022-08-02T10:32:36.716Z,213.75
2022-08-02T10:33:36.713Z,241.88
2022-08-02T10:34:36.704Z,236.25
2022-08-02T10:35:36.747Z,253.12
2022-08-02T10:36:36.689Z,236.25
2022-08-02T10:37:36.714Z,191.25
2022-08-02T10:38:36.693Z,258.75
2022-08-02T10:39:36.700Z,258.75
2022-08-02T10:40:36.685Z,264.38
2022-08-02T10:41:36.701Z,264.38
2022-08-02T10:42:36.644Z,264.38
2022-08-02T10:43:36.629Z,258.75
2022-08-02T10:44:36.621Z,258.75
2022-08-02T10:45:36.617Z,253.12
2022-08-02T10:46:36.694Z,253.12
2022-08-02T10:47:36.602Z,247.50
2022-08-02T10:48:36.612Z,241.88
2022-08-02T10:49:39.808Z,241.88
2022-08-02T10:50:37.593Z,236.25
2022-08-02T10:51:38.665Z,241.88
2022-08-02T10:52:36.633Z,241.88
2022-08-02T10:53:36.573Z,241.88
2022-08-02T10:54:36.740Z,241.88
2022-08-02T10:55:36.576Z,236.25
2022-08-02T10:56:36.558Z,241.88
2022-08-02T10:57:36.613Z,241.88
2022-08-02T10:58:36.542Z,270.00
2022-08-02T10:59:36.591Z,264.38
2022-08-02T11:00:36.556Z,270.00
2022-08-02T11:01:38.629Z,281.25
2022-08-02T11:02:36.513Z,196.88
2022-08-02T11:03:39.298Z,241.88
2022-08-02T11:04:36.498Z,275.62
2022-08-02T11:05:43.063Z,264.38
2022-08-02T11:06:37.503Z,264.38
2022-08-02T11:07:36.474Z,264.38
2022-08-02T11:08:36.535Z,264.38
2022-08-02T11:09:36.472Z,264.38
2022-08-02T11:10:36.496Z,253.12
2022-08-02T11:11:53.495Z,253.12
2022-08-02T11:12:37.448Z,270.00
2022-08-02T11:13:36.452Z,275.62
2022-08-02T11:14:37.536Z,275.62
2022-08-02T11:15:36.440Z,270.00
2022-08-02T11:16:36.439Z,264.38
2022-08-02T11:17:38.283Z,275.62
2022-08-02T11:18:36.427Z,281.25
2022-08-02T11:19:36.413Z,281.25
2022-08-02T11:20:37.501Z,275.62
2022-08-02T11:21:36.409Z,275.62
2022-08-02T11:22:36.383Z,275.62
2022-08-02T11:23:44.813Z,286.88
2022-08-02T11:24:37.372Z,286.88
2022-08-02T11:26:02.701Z,281.25
2022-08-02T11:26:38.402Z,286.88
2022-08-02T11:27:36.356Z,281.25
2022-08-02T11:28:36.352Z,298.12
2022-08-02T11:29:38.380Z,298.12
2022-08-02T11:30:36.349Z,292.50
2022-08-02T11:31:36.376Z,298.12
2022-08-02T11:32:36.317Z,303.75
2022-08-02T11:33:36.332Z,303.75
2022-08-02T11:34:37.401Z,303.75
2022-08-02T11:35:36.291Z,298.12
2022-08-02T11:36:36.355Z,292.50
2022-08-02T11:37:37.276Z,292.50
2022-08-02T11:38:36.286Z,281.25
2022-08-02T11:39:36.266Z,281.25
2022-08-02T11:40:36.259Z,275.62
2022-08-02T11:41:45.780Z,275.62
2022-08-02T11:42:37.306Z,270.00
2022-08-02T11:43:36.270Z,264.38
2022-08-02T11:44:36.235Z,264.38
2022-08-02T11:45:36.253Z,264.38
2022-08-02T11:46:36.224Z,275.62
2022-08-02T11:47:36.269Z,286.88
2022-08-02T11:48:36.205Z,292.50
2022-08-02T11:49:36.269Z,292.50
2022-08-02T11:50:36.181Z,281.25
2022-08-02T11:51:36.183Z,275.62
2022-08-02T11:52:36.169Z,281.25
2022-08-02T11:53:36.233Z,275.62
2022-08-02T11:54:36.165Z,281.25
2022-08-02T11:55:36.160Z,275.62
2022-08-02T11:56:36.153Z,281.25
2022-08-02T11:58:03.116Z,281.25
2022-08-02T11:58:37.197Z,270.00
2022-08-02T11:59:36.113Z,258.75
2022-08-02T12:00:36.117Z,281.25
2022-08-02T12:01:44.798Z,281.25
2022-08-02T12:02:37.257Z,281.25
2022-08-02T12:03:36.198Z,281.25
2022-08-02T12:04:36.152Z,286.88
2022-08-02T12:06:04.491Z,286.88
2022-08-02T12:06:38.076Z,264.38
2022-08-02T12:07:36.463Z,275.62
2022-08-02T12:08:36.058Z,275.62
2022-08-02T12:09:40.927Z,292.50
2022-08-02T12:10:38.030Z,298.12
2022-08-02T12:11:39.162Z,298.12
2022-08-02T12:12:36.016Z,298.12
2022-08-02T12:13:36.030Z,303.75
2022-08-02T12:14:36.004Z,309.38
2022-08-02T12:15:36.186Z,309.38
2022-08-02T12:16:36.003Z,309.38
2022-08-02T12:17:35.986Z,303.75
2022-08-02T12:18:36.027Z,309.38
2022-08-02T12:19:36.167Z,303.75
2022-08-02T12:20:37.004Z,309.38
2022-08-02T12:21:35.956Z,303.75
2022-08-02T12:22:40.049Z,309.38
2022-08-02T12:23:36.961Z,315.00
2022-08-02T12:24:36.970Z,320.62
2022-08-02T12:25:36.006Z,320.62
2022-08-02T12:26:35.919Z,326.25
2022-08-02T12:27:35.907Z,326.25
2022-08-02T12:28:35.909Z,331.88
2022-08-02T12:29:57.961Z,337.50
2022-08-02T12:30:36.932Z,337.50
2022-08-02T12:31:35.878Z,331.88
2022-08-02T12:32:36.879Z,326.25
2022-08-02T12:33:39.360Z,337.50
2022-08-02T12:34:35.879Z,343.12
2022-08-02T12:35:36.265Z,337.50
2022-08-02T12:36:35.906Z,337.50
2022-08-02T12:37:35.835Z,343.12
2022-08-02T12:38:35.827Z,343.12
2022-08-02T12:39:35.822Z,337.50
2022-08-02T12:40:35.834Z,337.50
2022-08-02T12:41:35.932Z,348.75
2022-08-02T12:42:35.793Z,348.75
2022-08-02T12:43:35.790Z,343.12
2022-08-02T12:44:35.772Z,348.75
2022-08-02T12:45:38.337Z,348.75
2022-08-02T12:46:42.122Z,365.62
2022-08-02T12:47:36.752Z,365.62